createdAt,value
2023-05-05T00:01:00.996Z,12.00
2023-05-05T00:03:28.100Z,11.90
2023-05-05T00:05:55.438Z,11.90
2023-05-05T00:08:22.860Z,11.90
2023-05-05T00:10:51.431Z,11.80
2023-05-05T00:13:19.598Z,11.80
2023-05-05T00:15:47.876Z,11.80
2023-05-05T00:18:16.587Z,11.80
2023-05-05T00:20:44.255Z,11.70
2023-05-05T00:23:11.071Z,11.70
2023-05-05T00:25:37.898Z,11.70
2023-05-05T00:28:04.817Z,11.60
2023-05-05T00:30:31.807Z,11.60
2023-05-05T00:32:58.562Z,11.60
2023-05-05T00:35:25.464Z,11.60
2023-05-05T00:37:52.271Z,11.50
2023-05-05T00:40:19.198Z,11.50
2023-05-05T00:42:47.671Z,11.50
2023-05-05T00:45:15.748Z,11.40
2023-05-05T00:47:45.245Z,11.40
2023-05-05T00:50:20.530Z,11.30
2023-05-05T00:52:47.427Z,11.30
2023-05-05T00:55:14.194Z,11.30
2023-05-05T00:57:41.172Z,11.30
2023-05-05T01:00:10.030Z,11.20
2023-05-05T01:02:37.142Z,11.20
2023-05-05T01:05:04.922Z,11.20
2023-05-05T01:07:55.439Z,11.10
2023-05-05T01:10:46.613Z,11.10
2023-05-05T01:13:48.192Z,11.10
2023-05-05T01:16:23.608Z,11.00
2023-05-05T01:19:10.337Z,11.00
2023-05-05T01:21:56.219Z,10.90
2023-05-05T01:24:26.028Z,10.90
2023-05-05T01:26:55.486Z,10.90
2023-05-05T01:29:41.207Z,10.80
2023-05-05T01:32:14.968Z,10.80
2023-05-05T01:35:00.996Z,10.80
2023-05-05T01:37:38.286Z,10.70
2023-05-05T01:40:08.208Z,10.70
2023-05-05T01:42:37.999Z,10.70
2023-05-05T01:45:08.149Z,10.70
2023-05-05T01:47:38.019Z,10.70
2023-05-05T01:50:06.590Z,10.60
2023-05-05T01:52:35.787Z,10.60
2023-05-05T01:55:03.550Z,10.60
2023-05-05T01:57:33.087Z,10.50
2023-05-05T02:00:02.091Z,10.50
2023-05-05T02:02:30.407Z,10.50
2023-05-05T02:04:58.939Z,10.50
2023-05-05T02:07:27.407Z,10.40
2023-05-05T02:09:55.549Z,10.40
2023-05-05T02:12:23.852Z,10.40
2023-05-05T02:14:52.254Z,10.40
2023-05-05T02:17:20.598Z,10.40
2023-05-05T02:19:49.909Z,10.40
2023-05-05T02:22:16.905Z,10.40
2023-05-05T02:24:44.293Z,10.30
2023-05-05T02:27:12.039Z,10.30
2023-05-05T02:30:04.720Z,10.30
2023-05-05T02:32:37.649Z,10.30
2023-05-05T02:35:28.323Z,10.30
2023-05-05T02:38:02.838Z,10.30
2023-05-05T02:40:34.072Z,10.20
2023-05-05T02:43:06.272Z,10.20
2023-05-05T02:45:33.471Z,10.20
2023-05-05T02:48:07.028Z,10.20
2023-05-05T02:50:33.969Z,10.10
2023-05-05T02:53:01.124Z,10.10
2023-05-05T02:55:39.174Z,10.10
2023-05-05T02:58:09.319Z,10.10
2023-05-05T03:00:50.475Z,10.00
2023-05-05T03:03:30.725Z,10.00
2023-05-05T03:06:02.356Z,10.00
2023-05-05T03:08:44.048Z,9.90
2023-05-05T03:11:27.777Z,9.90
2023-05-05T03:14:08.962Z,9.90
2023-05-05T03:16:38.123Z,9.90
2023-05-05T03:19:06.977Z,9.90
2023-05-05T03:21:33.937Z,9.90
2023-05-05T03:24:01.117Z,9.80
2023-05-05T03:26:27.870Z,9.80
2023-05-05T03:28:54.595Z,9.80
2023-05-05T03:31:21.434Z,9.80
2023-05-05T03:33:48.278Z,9.70
2023-05-05T03:36:15.108Z,9.70
2023-05-05T03:38:41.869Z,9.70
2023-05-05T03:41:08.551Z,9.70
2023-05-05T03:43:35.503Z,9.70
2023-05-05T03:46:02.280Z,9.70
2023-05-05T03:48:29.047Z,9.70
2023-05-05T03:50:55.777Z,9.70
2023-05-05T03:53:22.679Z,9.60
2023-05-05T03:55:49.505Z,9.60
2023-05-05T03:58:16.648Z,9.60
2023-05-05T04:00:43.653Z,9.60
2023-05-05T04:03:11.100Z,9.60
2023-05-05T04:05:38.071Z,9.60
2023-05-05T04:08:05.067Z,9.60
2023-05-05T04:10:32.167Z,9.60
2023-05-05T04:12:58.985Z,9.60
2023-05-05T04:15:25.772Z,9.60
2023-05-05T04:17:52.754Z,9.60
2023-05-05T04:20:19.630Z,9.60
2023-05-05T04:22:46.449Z,9.70
2023-05-05T04:25:13.399Z,9.70
2023-05-05T04:27:40.227Z,9.80
2023-05-05T04:30:07.935Z,9.80
2023-05-05T04:32:35.322Z,9.90
2023-05-05T04:35:02.067Z,9.90
2023-05-05T04:37:28.793Z,9.90
2023-05-05T04:39:55.567Z,10.00
2023-05-05T04:42:22.313Z,10.00
2023-05-05T04:44:49.009Z,10.10
2023-05-05T04:47:15.747Z,10.10
2023-05-05T04:49:42.502Z,10.30
2023-05-05T04:52:09.243Z,10.30
2023-05-05T04:54:37.007Z,10.30
2023-05-05T04:57:04.150Z,10.40
2023-05-05T04:59:30.955Z,10.40
2023-05-05T05:01:57.667Z,10.40
2023-05-05T05:04:25.875Z,10.40
2023-05-05T05:06:52.738Z,10.50
2023-05-05T05:09:19.462Z,10.60
2023-05-05T05:11:46.176Z,10.60
2023-05-05T05:14:12.957Z,10.70
2023-05-05T05:16:39.696Z,10.80
2023-05-05T05:19:06.554Z,10.90
2023-05-05T05:21:33.309Z,11.00
2023-05-05T05:24:00.017Z,11.20
2023-05-05T05:26:27.519Z,11.20
2023-05-05T05:28:54.869Z,11.40
2023-05-05T05:31:21.626Z,11.50
2023-05-05T05:33:48.362Z,11.50
2023-05-05T05:36:15.292Z,11.60
2023-05-05T05:38:42.018Z,11.60
2023-05-05T05:41:08.704Z,11.70
2023-05-05T05:43:35.509Z,11.80
2023-05-05T05:46:02.253Z,11.80
2023-05-05T05:48:29.411Z,11.90
2023-05-05T05:50:56.878Z,11.90
2023-05-05T05:53:23.679Z,12.00
2023-05-05T05:55:50.529Z,12.10
2023-05-05T05:58:18.469Z,12.20
2023-05-05T06:00:45.367Z,12.30
2023-05-05T06:03:12.479Z,12.40
2023-05-05T06:05:39.601Z,12.50
2023-05-05T06:08:06.446Z,12.70
2023-05-05T06:10:33.496Z,12.70
2023-05-05T06:13:00.680Z,12.70
2023-05-05T06:15:27.397Z,12.70
2023-05-05T06:17:54.160Z,12.80
2023-05-05T06:20:20.934Z,13.10
2023-05-05T06:22:47.739Z,13.20
2023-05-05T06:25:14.550Z,13.30
2023-05-05T06:27:41.262Z,13.50
2023-05-05T06:30:09.640Z,13.60
2023-05-05T06:32:36.642Z,13.70
2023-05-05T06:35:03.579Z,13.60
2023-05-05T06:37:30.331Z,13.50
2023-05-05T06:39:57.046Z,13.50
2023-05-05T06:42:23.825Z,13.50
2023-05-05T06:44:50.845Z,13.60
2023-05-05T06:47:17.566Z,13.70
2023-05-05T06:49:44.342Z,13.60
2023-05-05T06:52:11.348Z,13.70
2023-05-05T06:54:38.157Z,13.70
2023-05-05T06:57:04.942Z,13.70
2023-05-05T06:59:32.456Z,13.80
2023-05-05T07:01:59.547Z,13.90
2023-05-05T07:04:26.858Z,13.90
2023-05-05T07:06:55.175Z,13.80
2023-05-05T07:09:22.014Z,13.80
2023-05-05T07:11:48.748Z,13.90
2023-05-05T07:14:15.511Z,14.00
2023-05-05T07:16:42.312Z,14.00
2023-05-05T07:19:09.113Z,14.00
2023-05-05T07:21:36.491Z,14.10
2023-05-05T07:24:03.893Z,14.30
2023-05-05T07:26:30.827Z,14.40
2023-05-05T07:28:58.924Z,14.50
2023-05-05T07:31:26.459Z,14.60
2023-05-05T07:33:53.647Z,14.70
2023-05-05T07:36:20.698Z,14.70
2023-05-05T07:38:47.447Z,14.70
2023-05-05T07:41:14.284Z,14.80
2023-05-05T07:43:44.234Z,14.80
2023-05-05T07:46:11.687Z,15.00
2023-05-05T07:48:41.654Z,15.10
2023-05-05T07:51:09.249Z,15.20
2023-05-05T07:53:36.316Z,15.10
2023-05-05T07:56:03.708Z,15.10
2023-05-05T07:58:30.675Z,15.10
2023-05-05T08:00:57.492Z,15.30
2023-05-05T08:03:24.923Z,15.40
2023-05-05T08:05:54.306Z,15.50
2023-05-05T08:08:24.524Z,15.70
2023-05-05T08:10:55.513Z,15.80
2023-05-05T08:13:22.264Z,15.90
2023-05-05T08:15:49.072Z,15.80
2023-05-05T08:18:15.929Z,15.90
2023-05-05T08:20:42.800Z,16.20
2023-05-05T08:23:09.461Z,16.20
2023-05-05T08:25:36.278Z,16.20
2023-05-05T08:28:03.009Z,16.20
2023-05-05T08:30:30.275Z,16.20
2023-05-05T08:32:57.131Z,16.20
2023-05-05T08:35:24.580Z,16.40
2023-05-05T08:37:51.874Z,16.60
2023-05-05T08:40:24.988Z,16.70
2023-05-05T08:42:51.693Z,16.90
2023-05-05T08:45:18.422Z,16.90
2023-05-05T08:47:45.509Z,16.90
2023-05-05T08:50:12.577Z,17.00
2023-05-05T08:52:45.111Z,17.00
2023-05-05T08:55:26.669Z,17.00
2023-05-05T08:58:01.006Z,17.20
2023-05-05T09:00:28.249Z,17.20
2023-05-05T09:02:58.208Z,17.20
2023-05-05T09:05:26.096Z,17.30
2023-05-05T09:07:53.281Z,17.50
2023-05-05T09:10:20.249Z,17.60
2023-05-05T09:12:47.397Z,17.70
2023-05-05T09:15:15.443Z,17.60
2023-05-05T09:17:42.631Z,17.80
2023-05-05T09:20:14.775Z,17.90
2023-05-05T09:22:44.756Z,17.90
2023-05-05T09:25:13.427Z,18.00
2023-05-05T09:27:48.486Z,18.00
2023-05-05T09:30:26.918Z,17.90
2023-05-05T09:32:55.893Z,18.10
2023-05-05T09:35:23.320Z,18.30
2023-05-05T09:37:50.208Z,18.30
2023-05-05T09:40:19.229Z,18.60
2023-05-05T09:42:46.247Z,18.70
2023-05-05T09:45:19.309Z,18.70
2023-05-05T09:47:47.393Z,18.60
2023-05-05T09:50:16.278Z,18.70
2023-05-05T09:52:43.360Z,18.70
2023-05-05T09:55:19.284Z,18.80
2023-05-05T09:57:47.347Z,19.00
2023-05-05T10:00:14.703Z,19.10
2023-05-05T10:02:42.053Z,19.20
2023-05-05T10:05:11.033Z,19.10
2023-05-05T10:07:38.928Z,19.20
2023-05-05T10:10:08.411Z,19.30
2023-05-05T10:12:37.008Z,19.60
2023-05-05T10:15:05.663Z,19.60
2023-05-05T10:17:36.077Z,19.60
2023-05-05T10:20:03.985Z,19.60
2023-05-05T10:22:35.310Z,19.90
2023-05-05T10:25:14.144Z,20.00
2023-05-05T10:27:46.335Z,20.00
2023-05-05T10:30:20.550Z,19.90
2023-05-05T10:33:07.951Z,19.80
2023-05-05T10:35:43.876Z,19.70
2023-05-05T10:38:12.715Z,19.80
2023-05-05T10:40:46.425Z,20.10
2023-05-05T10:43:15.185Z,20.20
2023-05-05T10:45:42.715Z,20.20
2023-05-05T10:48:18.855Z,20.50
2023-05-05T10:50:53.632Z,20.50
2023-05-05T10:53:28.782Z,20.40
2023-05-05T10:56:19.107Z,20.30
2023-05-05T10:58:59.074Z,20.50
2023-05-05T11:01:33.243Z,20.60
2023-05-05T11:04:20.262Z,20.50
2023-05-05T11:07:27.397Z,20.60
2023-05-05T11:09:58.791Z,20.90
2023-05-05T11:12:25.710Z,21.10
2023-05-05T11:15:27.869Z,21.10
2023-05-05T11:17:55.716Z,21.20
2023-05-05T11:20:39.714Z,21.30
2023-05-05T11:23:06.897Z,21.20
2023-05-05T11:25:37.541Z,20.90
2023-05-05T11:28:10.164Z,21.00
2023-05-05T11:30:57.837Z,21.00
2023-05-05T11:33:36.964Z,20.80
2023-05-05T11:36:06.765Z,20.60
2023-05-05T11:39:24.775Z,20.50
2023-05-05T11:42:14.492Z,20.40
2023-05-05T11:44:41.635Z,20.70
2023-05-05T11:47:08.289Z,21.00
2023-05-05T11:49:37.654Z,21.20
2023-05-05T11:52:14.935Z,21.20
2023-05-05T11:54:47.746Z,21.20
2023-05-05T11:57:17.222Z,21.20
2023-05-05T12:00:00.152Z,20.90
2023-05-05T12:02:28.332Z,20.90
2023-05-05T12:04:56.342Z,21.10
2023-05-05T12:07:31.619Z,21.10
2023-05-05T12:09:58.879Z,21.30
2023-05-05T12:12:39.911Z,21.40
2023-05-05T12:15:07.930Z,21.40
2023-05-05T12:17:44.850Z,21.30
2023-05-05T12:20:12.833Z,21.40
2023-05-05T12:22:40.237Z,21.50
2023-05-05T12:25:08.234Z,21.60
2023-05-05T12:27:35.557Z,21.60
2023-05-05T12:30:14.862Z,21.60
2023-05-05T12:32:42.250Z,21.50
2023-05-05T12:35:10.177Z,21.60
2023-05-05T12:37:37.927Z,21.70
2023-05-05T12:40:06.504Z,21.70
2023-05-05T12:42:38.954Z,21.70
2023-05-05T12:45:07.144Z,21.80
2023-05-05T12:47:34.999Z,21.70
2023-05-05T12:50:03.252Z,21.60
2023-05-05T12:52:44.701Z,21.60
2023-05-05T12:55:12.204Z,21.40
2023-05-05T12:57:57.986Z,21.20
2023-05-05T13:00:25.435Z,21.40
2023-05-05T13:02:53.037Z,21.50
2023-05-05T13:05:33.186Z,21.60
2023-05-05T13:08:00.210Z,21.50
2023-05-05T13:10:28.044Z,21.50
2023-05-05T13:12:58.440Z,21.50
2023-05-05T13:15:25.934Z,21.50
2023-05-05T13:18:02.679Z,21.50
2023-05-05T13:20:29.675Z,21.60
2023-05-05T13:22:57.297Z,21.80
2023-05-05T13:25:24.304Z,21.80
2023-05-05T13:27:51.099Z,21.70
2023-05-05T13:30:17.835Z,21.60
2023-05-05T13:32:44.609Z,21.70
2023-05-05T13:35:13.187Z,21.60
2023-05-05T13:37:42.472Z,21.50
2023-05-05T13:40:10.123Z,21.50
2023-05-05T13:42:36.839Z,21.60
2023-05-05T13:45:03.919Z,21.60
2023-05-05T13:47:30.816Z,21.80
2023-05-05T13:49:57.591Z,22.10
2023-05-05T13:52:24.265Z,22.30
2023-05-05T13:54:51.878Z,22.50
2023-05-05T13:57:18.595Z,23.10
2023-05-05T13:59:45.330Z,23.40
2023-05-05T14:02:12.089Z,23.50
2023-05-05T14:04:38.833Z,23.00
2023-05-05T14:07:05.585Z,22.90
2023-05-05T14:09:32.467Z,22.80
2023-05-05T14:11:59.266Z,23.10
2023-05-05T14:14:26.019Z,23.40
2023-05-05T14:16:52.749Z,23.60
2023-05-05T14:19:19.635Z,24.00
2023-05-05T14:21:46.318Z,24.60
2023-05-05T14:24:13.053Z,24.70
2023-05-05T14:26:39.810Z,24.90
2023-05-05T14:29:06.601Z,24.80
2023-05-05T14:31:33.466Z,24.10
2023-05-05T14:34:00.363Z,23.70
2023-05-05T14:36:27.061Z,23.30
2023-05-05T14:38:53.872Z,23.20
2023-05-05T14:41:20.650Z,23.00
2023-05-05T14:43:47.413Z,23.00
2023-05-05T14:46:14.198Z,23.00
2023-05-05T14:48:41.121Z,23.00
2023-05-05T14:51:07.848Z,22.80
2023-05-05T14:53:34.872Z,22.90
2023-05-05T14:56:02.341Z,23.00
2023-05-05T14:58:29.131Z,22.80
2023-05-05T15:00:55.935Z,22.90
2023-05-05T15:03:22.737Z,23.00
2023-05-05T15:05:49.628Z,22.80
2023-05-05T15:08:18.681Z,22.60
2023-05-05T15:10:48.428Z,22.50
2023-05-05T15:13:15.376Z,22.60
2023-05-05T15:15:42.254Z,22.50
2023-05-05T15:18:09.033Z,22.20
2023-05-05T15:20:35.799Z,22.10
2023-05-05T15:23:02.574Z,22.30
2023-05-05T15:25:29.395Z,22.40
2023-05-05T15:27:56.537Z,22.30
2023-05-05T15:30:23.236Z,22.30
2023-05-05T15:32:50.030Z,22.30
2023-05-05T15:35:17.000Z,22.40
2023-05-05T15:37:43.747Z,22.40
2023-05-05T15:40:10.958Z,22.10
2023-05-05T15:42:37.790Z,22.10
2023-05-05T15:45:05.454Z,21.60
2023-05-05T15:47:32.342Z,21.30
2023-05-05T15:49:59.083Z,21.20
2023-05-05T15:52:25.805Z,21.10
2023-05-05T15:54:52.508Z,20.90
2023-05-05T15:57:19.340Z,20.90
2023-05-05T15:59:46.178Z,20.90
2023-05-05T16:02:13.008Z,20.60
2023-05-05T16:04:39.739Z,20.50
2023-05-05T16:07:06.445Z,20.40
2023-05-05T16:09:33.251Z,20.40
2023-05-05T16:11:59.990Z,20.40
2023-05-05T16:14:27.874Z,20.40
2023-05-05T16:16:55.484Z,20.30
2023-05-05T16:19:23.354Z,20.30
2023-05-05T16:21:50.050Z,20.20
2023-05-05T16:24:17.063Z,20.20
2023-05-05T16:26:44.513Z,20.00
2023-05-05T16:29:12.220Z,19.90
2023-05-05T16:31:39.438Z,19.90
2023-05-05T16:34:06.506Z,19.70
2023-05-05T16:36:33.249Z,19.60
2023-05-05T16:39:00.020Z,19.60
2023-05-05T16:41:27.086Z,19.50
2023-05-05T16:43:53.904Z,19.50
2023-05-05T16:46:20.636Z,19.40
2023-05-05T16:48:47.440Z,19.40
2023-05-05T16:51:14.127Z,19.40
2023-05-05T16:53:41.044Z,19.30
2023-05-05T16:56:10.970Z,19.20
2023-05-05T16:58:37.701Z,19.20
2023-05-05T17:01:04.468Z,19.10
2023-05-05T17:03:31.217Z,19.10
2023-05-05T17:05:58.279Z,19.00
2023-05-05T17:08:25.066Z,19.00
2023-05-05T17:10:51.803Z,19.00
2023-05-05T17:13:19.101Z,19.00
2023-05-05T17:15:46.037Z,18.90
2023-05-05T17:18:12.794Z,18.80
2023-05-05T17:20:39.561Z,18.70
2023-05-05T17:23:08.466Z,18.70
2023-05-05T17:25:35.914Z,18.70
2023-05-05T17:28:02.790Z,18.60
2023-05-05T17:30:29.522Z,18.50
2023-05-05T17:32:56.883Z,18.60
2023-05-05T17:35:23.732Z,18.60
2023-05-05T17:37:50.513Z,18.50
2023-05-05T17:40:17.227Z,18.50
2023-05-05T17:42:43.944Z,18.40
2023-05-05T17:45:11.363Z,18.40
2023-05-05T17:47:38.530Z,18.40
2023-05-05T17:50:05.917Z,18.30
2023-05-05T17:52:32.663Z,18.20
2023-05-05T17:54:59.348Z,18.20
2023-05-05T17:57:26.103Z,18.10
2023-05-05T17:59:53.592Z,18.10
2023-05-05T18:02:20.715Z,18.10
2023-05-05T18:04:47.686Z,18.10
2023-05-05T18:07:14.887Z,18.00
2023-05-05T18:09:42.484Z,18.00
2023-05-05T18:12:09.529Z,17.90
2023-05-05T18:14:36.643Z,17.70
2023-05-05T18:17:04.705Z,17.70
2023-05-05T18:19:31.659Z,17.70
2023-05-05T18:21:59.087Z,17.70
2023-05-05T18:24:26.187Z,17.60
2023-05-05T18:26:53.111Z,17.60
2023-05-05T18:29:21.722Z,17.50
2023-05-05T18:31:51.478Z,17.40
2023-05-05T18:34:19.026Z,17.30
2023-05-05T18:36:46.433Z,17.30
2023-05-05T18:39:13.868Z,17.20
2023-05-05T18:41:41.106Z,17.20
2023-05-05T18:44:08.029Z,17.10
2023-05-05T18:46:34.946Z,17.00
2023-05-05T18:49:01.820Z,17.00
2023-05-05T18:51:28.664Z,17.00
2023-05-05T18:53:55.600Z,16.90
2023-05-05T18:56:22.348Z,16.90
2023-05-05T18:58:49.137Z,16.90
2023-05-05T19:01:16.338Z,16.90
2023-05-05T19:03:48.033Z,16.80
2023-05-05T19:06:15.470Z,16.80
2023-05-05T19:08:42.908Z,16.70
2023-05-05T19:11:09.878Z,16.70
2023-05-05T19:16:08.359Z,16.70
2023-05-05T19:18:35.094Z,16.60
2023-05-05T19:21:02.267Z,16.50
2023-05-05T19:23:29.038Z,16.40
2023-05-05T19:25:55.827Z,16.40
2023-05-05T19:28:22.591Z,16.40
2023-05-05T19:30:49.358Z,16.30
2023-05-05T19:33:16.400Z,16.20
2023-05-05T19:35:43.888Z,16.30
2023-05-05T19:38:10.813Z,16.10
2023-05-05T19:40:38.601Z,16.10
2023-05-05T19:43:05.589Z,16.10
2023-05-05T19:45:33.694Z,16.10
2023-05-05T19:48:01.523Z,16.00
2023-05-05T19:50:30.195Z,16.00
2023-05-05T19:52:57.195Z,16.00
2023-05-05T19:55:24.406Z,15.90
2023-05-05T19:57:51.213Z,15.90
2023-05-05T20:00:19.535Z,15.90
2023-05-05T20:02:46.445Z,15.80
2023-05-05T20:05:14.905Z,15.80
2023-05-05T20:07:42.033Z,15.80
2023-05-05T20:10:10.581Z,15.70
2023-05-05T20:12:37.548Z,15.70
2023-05-05T20:15:04.612Z,15.70
2023-05-05T20:17:31.356Z,15.70
2023-05-05T20:19:58.093Z,15.70
2023-05-05T20:22:26.460Z,15.60
2023-05-05T20:24:53.423Z,15.50
2023-05-05T20:27:21.501Z,15.50
2023-05-05T20:29:48.188Z,15.50
2023-05-05T20:32:15.643Z,15.40
2023-05-05T20:34:42.395Z,15.30
2023-05-05T20:37:10.074Z,15.30
2023-05-05T20:39:38.018Z,15.20
2023-05-05T20:42:04.782Z,15.10
2023-05-05T20:44:31.611Z,15.10
2023-05-05T20:46:58.385Z,15.10
2023-05-05T20:49:25.274Z,15.00
2023-05-05T20:51:51.963Z,14.90
2023-05-05T20:54:18.670Z,14.90
2023-05-05T20:56:45.508Z,15.00
2023-05-05T20:59:12.200Z,15.00
2023-05-05T21:01:39.060Z,15.00
2023-05-05T21:04:06.029Z,14.80
2023-05-05T21:06:32.733Z,14.80
2023-05-05T21:08:59.476Z,14.80
2023-05-05T21:11:26.154Z,14.70
2023-05-05T21:13:52.846Z,14.70
2023-05-05T21:16:19.586Z,14.70
2023-05-05T21:18:47.273Z,14.60
2023-05-05T21:21:14.047Z,14.60
2023-05-05T21:23:40.800Z,14.60
2023-05-05T21:26:07.474Z,14.50
2023-05-05T21:28:34.192Z,14.40
2023-05-05T21:31:20.515Z,14.40
2023-05-05T21:33:47.553Z,14.30
2023-05-05T21:36:19.011Z,14.40
2023-05-05T21:38:45.932Z,14.30
2023-05-05T21:41:12.749Z,14.20
2023-05-05T21:43:39.459Z,14.10
2023-05-05T21:46:06.216Z,14.10
2023-05-05T21:48:33.125Z,14.00
2023-05-05T21:51:00.068Z,14.00
2023-05-05T21:53:26.781Z,13.90
2023-05-05T21:55:53.444Z,13.80
2023-05-05T21:58:20.241Z,13.70
2023-05-05T22:00:49.756Z,13.50
2023-05-05T22:03:17.038Z,13.50
2023-05-05T22:05:43.926Z,13.50
2023-05-05T22:08:11.243Z,13.50
2023-05-05T22:10:39.172Z,13.50
2023-05-05T22:13:06.034Z,13.40
2023-05-05T22:15:42.611Z,13.30
2023-05-05T22:18:13.179Z,13.20
2023-05-05T22:20:40.604Z,13.10
2023-05-05T22:23:07.383Z,13.00
2023-05-05T22:25:34.105Z,12.90
2023-05-05T22:28:00.942Z,12.90
2023-05-05T22:30:27.663Z,12.80
2023-05-05T22:32:54.997Z,12.80
2023-05-05T22:35:21.894Z,12.80
2023-05-05T22:37:48.671Z,12.70
2023-05-05T22:40:15.477Z,12.70
2023-05-05T22:42:42.242Z,12.80
2023-05-05T22:45:09.947Z,12.70
2023-05-05T22:47:37.131Z,12.60
2023-05-05T22:50:03.965Z,12.50
2023-05-05T22:52:30.797Z,12.50
2023-05-05T22:54:57.610Z,12.40
2023-05-05T22:57:24.483Z,12.30
2023-05-05T22:59:51.519Z,12.20
2023-05-05T23:02:18.245Z,12.10
2023-05-05T23:04:45.197Z,12.00
2023-05-05T23:07:12.552Z,11.90
2023-05-05T23:09:39.438Z,11.90
2023-05-05T23:12:06.343Z,11.80
2023-05-05T23:14:33.080Z,11.70
2023-05-05T23:16:59.974Z,11.70
2023-05-05T23:19:28.940Z,11.70
2023-05-05T23:21:55.776Z,11.60
2023-05-05T23:24:22.518Z,11.50
2023-05-05T23:26:49.309Z,11.50
2023-05-05T23:29:16.017Z,11.50
2023-05-05T23:31:42.683Z,11.50
2023-05-05T23:34:09.513Z,11.40
2023-05-05T23:36:36.219Z,11.40
2023-05-05T23:39:02.996Z,11.30
2023-05-05T23:41:29.882Z,11.30
2023-05-05T23:43:56.860Z,11.20
2023-05-05T23:46:24.007Z,11.10
2023-05-05T23:48:51.169Z,11.10
2023-05-05T23:51:17.955Z,11.00
2023-05-05T23:53:44.688Z,11.00
2023-05-05T23:56:11.802Z,11.00
2023-05-05T23:58:38.770Z,10.90
